New Haven, Wisconsin
Current Conditions -  °F | °C
As of 12:15 AM on Friday 19 Dec 2014 (Local Time) from KRNH Reporting Station
Overcast Overcast  
Wind Chill: 15°   Ceiling: 1300
Heat Index: 22°   Visibility: 10mi
Dew Point: 19°   Wind: 6mph
Humidity: 89%   Direction: 190°S
Pressure: 30.27"   Gusts: NA
Location:  45.2417°N, 92.2543°W
Report Text: KRNH 190615Z AUTO 19005KT 10SM OVC013 M05/M07 A3027 RMK AO2 T10551070
Loading
Personal Weather Stations






























Interactive Weather Map New forecast layout! Learn more

10-Day Weather Forecast

Advertisements
Track Severe Weather on mobile